createdAt,value
2018-12-14T00:00:54.457Z,-2.00
2018-12-14T00:03:22.089Z,-2.00
2018-12-14T00:05:49.705Z,-1.90
2018-12-14T00:08:18.222Z,-1.90
2018-12-14T02:30:43.908Z,-2.20
2018-12-14T02:33:19.783Z,-2.20
2018-12-14T09:36:40.848Z,-1.90
2018-12-14T09:39:12.287Z,-1.90
2018-12-14T09:41:39.891Z,-1.80
2018-12-14T10:18:34.929Z,-1.70
2018-12-14T10:21:02.609Z,-1.70
2018-12-14T10:53:44.331Z,-1.70
2018-12-14T10:56:12.019Z,-1.70
2018-12-14T10:58:43.357Z,-1.80
2018-12-14T11:12:24.634Z,-2.00
2018-12-14T11:14:53.851Z,-2.10
2018-12-14T11:24:57.751Z,-1.90
2018-12-14T11:27:25.353Z,-1.90
2018-12-14T11:29:52.879Z,-1.80
2018-12-14T11:32:20.704Z,-1.80
2018-12-14T11:51:55.531Z,-1.80
2018-12-14T12:26:41.165Z,-2.00
2018-12-14T13:04:53.042Z,-2.20
2018-12-14T13:07:25.983Z,-2.30
2018-12-14T13:09:56.028Z,-2.40
2018-12-14T14:22:05.351Z,-2.30
2018-12-14T14:24:33.148Z,-2.30
2018-12-14T14:37:32.382Z,-2.50
2018-12-14T15:49:50.018Z,-2.60
2018-12-14T15:52:19.972Z,-2.50
2018-12-14T18:13:26.143Z,-2.80
2018-12-14T18:43:17.593Z,-2.60
2018-12-14T18:45:45.195Z,-2.50
2018-12-14T18:48:12.808Z,-2.50
2018-12-14T18:50:41.069Z,-2.50
2018-12-14T18:53:08.851Z,-2.60
2018-12-14T18:55:37.639Z,-2.60
2018-12-14T18:58:06.011Z,-2.60
2018-12-14T19:00:35.278Z,-2.60
2018-12-14T19:03:03.978Z,-2.60
2018-12-14T19:05:31.846Z,-2.70
2018-12-14T19:08:08.394Z,-2.70
2018-12-14T19:10:36.123Z,-2.60
2018-12-14T19:13:06.194Z,-2.60
2018-12-14T19:15:48.625Z,-2.60
2018-12-14T19:18:18.837Z,-2.50
2018-12-14T19:20:47.235Z,-2.50
2018-12-14T19:23:22.922Z,-2.50
2018-12-14T19:25:51.126Z,-2.50
2018-12-14T19:28:27.626Z,-2.50
2018-12-14T20:02:58.192Z,-2.60
2018-12-14T20:05:25.850Z,-2.70
2018-12-14T20:07:53.381Z,-2.60
2018-12-14T20:10:21.033Z,-2.70
2018-12-14T20:12:49.162Z,-2.70
2018-12-14T20:15:16.887Z,-2.70
2018-12-14T20:27:42.794Z,-2.70
2018-12-14T20:30:12.272Z,-2.70
2018-12-14T20:32:39.843Z,-2.70
2018-12-14T20:35:07.853Z,-2.70
2018-12-14T20:37:36.060Z,-2.70
2018-12-14T20:54:51.021Z,-2.40
2018-12-14T22:32:44.603Z,-2.80
2018-12-14T22:35:12.762Z,-2.70
2018-12-14T22:37:51.079Z,-2.70
2018-12-14T22:40:18.651Z,-2.70
2018-12-14T22:42:47.098Z,-2.70
2018-12-14T23:30:00.419Z,-3.00
